KHTL/HTL METAR and TAF weather

Enter ICAO airport designator
Station Type Date Time Source
KHTL METAR 2020/08/15 09:53 UTC NOAA

KHTL 150953Z AUTO 11004KT 10SM CLR 18/13 A3001 RMK AO2 SLP158 T01830133


Station Type Date Time Source
KHTL Decoded METAR 2020/08/15 09:53 UTC NOAA

ROSCOMMON COUNTY AIRPORT, MI, United States (KHTL) 44-21N 084-40W 351M
Aug 15, 2020 - 05:53 AM EDT / 2020.08.15 0953 UTC
Wind: from the ESE (110 degrees) at 5 MPH (4 KT):0
Visibility: 10 mile(s):0
Sky conditions: clear
Temperature: 64.9 F (18.3 C)
Dew Point: 55.9 F (13.3 C)
Relative Humidity: 72%
Pressure (altimeter): 30.01 in. Hg (1016 hPa)
ob: KHTL 150953Z AUTO 11004KT 10SM CLR 18/13 A3001 RMK AO2 SLP158 T01830133
cycle: 10

Station Type Date Time Source
KHTL TAF UTC NOAA

Error!

Example: see airport list